sensor_id;sensor_type;location;lat;lon;timestamp;temperature;humidity
62575;DHT22;70119;45.638;11.714;2023-07-31T00:00:45;32.40;46.30
62575;DHT22;70119;45.638;11.714;2023-07-31T00:03:12;32.40;46.30
62575;DHT22;70119;45.638;11.714;2023-07-31T00:05:37;32.30;46.30
62575;DHT22;70119;45.638;11.714;2023-07-31T00:08:03;32.40;46.30
62575;DHT22;70119;45.638;11.714;2023-07-31T00:10:29;32.40;46.30
62575;DHT22;70119;45.638;11.714;2023-07-31T00:12:55;32.40;46.30
62575;DHT22;70119;45.638;11.714;2023-07-31T00:15:21;32.40;46.30
62575;DHT22;70119;45.638;11.714;2023-07-31T00:17:47;32.40;46.40
62575;DHT22;70119;45.638;11.714;2023-07-31T00:20:13;32.50;46.30
62575;DHT22;70119;45.638;11.714;2023-07-31T00:22:39;32.40;46.30
62575;DHT22;70119;45.638;11.714;2023-07-31T00:25:04;32.40;46.30
62575;DHT22;70119;45.638;11.714;2023-07-31T00:27:32;32.40;46.20
62575;DHT22;70119;45.638;11.714;2023-07-31T00:29:58;32.50;46.30
62575;DHT22;70119;45.638;11.714;2023-07-31T00:32:24;32.50;46.20
62575;DHT22;70119;45.638;11.714;2023-07-31T00:34:49;32.40;46.20
62575;DHT22;70119;45.638;11.714;2023-07-31T00:37:15;32.40;46.20
62575;DHT22;70119;45.638;11.714;2023-07-31T00:39:42;32.50;46.30
62575;DHT22;70119;45.638;11.714;2023-07-31T00:42:08;32.50;46.30
62575;DHT22;70119;45.638;11.714;2023-07-31T00:44:34;32.50;46.20
62575;DHT22;70119;45.638;11.714;2023-07-31T00:47:00;32.40;46.30
62575;DHT22;70119;45.638;11.714;2023-07-31T00:49:26;32.40;46.40
62575;DHT22;70119;45.638;11.714;2023-07-31T00:51:53;32.30;46.40
62575;DHT22;70119;45.638;11.714;2023-07-31T00:54:19;32.40;46.40
62575;DHT22;70119;45.638;11.714;2023-07-31T00:56:46;32.40;46.30
62575;DHT22;70119;45.638;11.714;2023-07-31T00:59:14;32.40;46.30
62575;DHT22;70119;45.638;11.714;2023-07-31T01:01:40;32.40;46.40
62575;DHT22;70119;45.638;11.714;2023-07-31T01:04:06;32.30;46.50
62575;DHT22;70119;45.638;11.714;2023-07-31T01:07:13;32.30;46.50
62575;DHT22;70119;45.638;11.714;2023-07-31T01:12:27;32.30;46.60
62575;DHT22;70119;45.638;11.714;2023-07-31T01:15:13;32.30;46.50
62575;DHT22;70119;45.638;11.714;2023-07-31T01:17:41;32.30;46.50
62575;DHT22;70119;45.638;11.714;2023-07-31T01:20:17;32.30;46.60
62575;DHT22;70119;45.638;11.714;2023-07-31T01:23:22;32.20;46.70
62575;DHT22;70119;45.638;11.714;2023-07-31T01:26:03;32.20;46.70
62575;DHT22;70119;45.638;11.714;2023-07-31T01:31:07;32.30;46.60
62575;DHT22;70119;45.638;11.714;2023-07-31T01:33:36;32.30;46.60
62575;DHT22;70119;45.638;11.714;2023-07-31T01:36:03;32.30;46.70
62575;DHT22;70119;45.638;11.714;2023-07-31T01:38:30;32.20;46.70
62575;DHT22;70119;45.638;11.714;2023-07-31T01:40:55;32.20;46.80
62575;DHT22;70119;45.638;11.714;2023-07-31T01:43:21;32.20;46.80
62575;DHT22;70119;45.638;11.714;2023-07-31T01:45:47;32.20;46.70
62575;DHT22;70119;45.638;11.714;2023-07-31T01:48:13;32.20;46.60
62575;DHT22;70119;45.638;11.714;2023-07-31T01:50:39;32.30;46.60
62575;DHT22;70119;45.638;11.714;2023-07-31T01:53:04;32.30;46.60
62575;DHT22;70119;45.638;11.714;2023-07-31T01:55:30;32.30;46.50
62575;DHT22;70119;45.638;11.714;2023-07-31T01:57:56;32.30;46.50
62575;DHT22;70119;45.638;11.714;2023-07-31T02:00:22;32.20;46.60
62575;DHT22;70119;45.638;11.714;2023-07-31T02:02:48;32.20;46.60
62575;DHT22;70119;45.638;11.714;2023-07-31T02:05:14;32.20;46.60
62575;DHT22;70119;45.638;11.714;2023-07-31T02:07:40;32.30;46.50
62575;DHT22;70119;45.638;11.714;2023-07-31T02:10:06;32.20;46.60
62575;DHT22;70119;45.638;11.714;2023-07-31T02:12:32;32.20;46.60
62575;DHT22;70119;45.638;11.714;2023-07-31T02:14:59;32.20;46.70
62575;DHT22;70119;45.638;11.714;2023-07-31T02:17:25;32.20;46.70
62575;DHT22;70119;45.638;11.714;2023-07-31T02:19:50;32.20;46.70
62575;DHT22;70119;45.638;11.714;2023-07-31T02:22:16;32.20;46.60
62575;DHT22;70119;45.638;11.714;2023-07-31T02:24:42;32.20;46.50
62575;DHT22;70119;45.638;11.714;2023-07-31T02:27:08;32.30;46.50
62575;DHT22;70119;45.638;11.714;2023-07-31T02:29:34;32.20;46.50
62575;DHT22;70119;45.638;11.714;2023-07-31T02:31:59;32.20;46.50
62575;DHT22;70119;45.638;11.714;2023-07-31T02:34:25;32.20;46.50
62575;DHT22;70119;45.638;11.714;2023-07-31T02:36:51;32.30;46.30
62575;DHT22;70119;45.638;11.714;2023-07-31T02:39:17;32.30;46.20
62575;DHT22;70119;45.638;11.714;2023-07-31T02:41:43;32.30;46.20
62575;DHT22;70119;45.638;11.714;2023-07-31T02:44:09;32.30;46.10
62575;DHT22;70119;45.638;11.714;2023-07-31T02:46:35;32.30;46.10
62575;DHT22;70119;45.638;11.714;2023-07-31T02:49:01;32.30;46.20
62575;DHT22;70119;45.638;11.714;2023-07-31T02:51:27;32.30;46.20
62575;DHT22;70119;45.638;11.714;2023-07-31T02:53:53;32.30;46.10
62575;DHT22;70119;45.638;11.714;2023-07-31T02:56:19;32.30;46.10
62575;DHT22;70119;45.638;11.714;2023-07-31T02:58:45;32.20;46.10
62575;DHT22;70119;45.638;11.714;2023-07-31T03:01:10;32.20;46.20
62575;DHT22;70119;45.638;11.714;2023-07-31T03:03:36;32.20;46.20
62575;DHT22;70119;45.638;11.714;2023-07-31T03:06:02;32.20;46.10
62575;DHT22;70119;45.638;11.714;2023-07-31T03:08:28;32.20;46.10
62575;DHT22;70119;45.638;11.714;2023-07-31T03:10:54;32.20;46.00
62575;DHT22;70119;45.638;11.714;2023-07-31T03:13:20;32.20;46.00
62575;DHT22;70119;45.638;11.714;2023-07-31T03:15:46;32.20;46.00
62575;DHT22;70119;45.638;11.714;2023-07-31T03:18:11;32.20;46.00
62575;DHT22;70119;45.638;11.714;2023-07-31T03:20:37;32.20;46.00
62575;DHT22;70119;45.638;11.714;2023-07-31T03:23:07;32.20;46.00
62575;DHT22;70119;45.638;11.714;2023-07-31T03:25:33;32.20;46.00
62575;DHT22;70119;45.638;11.714;2023-07-31T03:27:58;32.20;46.00
62575;DHT22;70119;45.638;11.714;2023-07-31T03:30:24;32.10;46.00
62575;DHT22;70119;45.638;11.714;2023-07-31T03:32:50;32.10;46.10
62575;DHT22;70119;45.638;11.714;2023-07-31T03:35:16;32.20;46.10
62575;DHT22;70119;45.638;11.714;2023-07-31T03:37:42;32.20;46.00
62575;DHT22;70119;45.638;11.714;2023-07-31T03:40:08;32.20;46.00
62575;DHT22;70119;45.638;11.714;2023-07-31T03:42:34;32.20;46.00
62575;DHT22;70119;45.638;11.714;2023-07-31T03:45:00;32.10;46.00
62575;DHT22;70119;45.638;11.714;2023-07-31T03:47:26;32.10;46.10
62575;DHT22;70119;45.638;11.714;2023-07-31T03:49:52;32.10;46.10
62575;DHT22;70119;45.638;11.714;2023-07-31T03:52:18;32.10;46.00
62575;DHT22;70119;45.638;11.714;2023-07-31T03:54:43;32.10;46.00
62575;DHT22;70119;45.638;11.714;2023-07-31T03:57:12;32.10;46.00
62575;DHT22;70119;45.638;11.714;2023-07-31T03:59:38;32.10;45.90
62575;DHT22;70119;45.638;11.714;2023-07-31T04:02:04;32.10;46.00
62575;DHT22;70119;45.638;11.714;2023-07-31T04:04:30;32.10;46.00
62575;DHT22;70119;45.638;11.714;2023-07-31T04:06:56;32.10;46.00
62575;DHT22;70119;45.638;11.714;2023-07-31T04:09:22;32.10;46.00
62575;DHT22;70119;45.638;11.714;2023-07-31T04:11:48;32.10;46.00
62575;DHT22;70119;45.638;11.714;2023-07-31T04:14:14;32.10;46.10
62575;DHT22;70119;45.638;11.714;2023-07-31T04:16:40;32.10;46.10
62575;DHT22;70119;45.638;11.714;2023-07-31T04:19:05;32.10;46.10
62575;DHT22;70119;45.638;11.714;2023-07-31T04:21:31;32.10;46.10
62575;DHT22;70119;45.638;11.714;2023-07-31T04:23:57;32.10;46.10
62575;DHT22;70119;45.638;11.714;2023-07-31T04:26:24;32.10;46.20
62575;DHT22;70119;45.638;11.714;2023-07-31T04:28:49;32.10;46.20
62575;DHT22;70119;45.638;11.714;2023-07-31T04:31:15;32.10;46.20
62575;DHT22;70119;45.638;11.714;2023-07-31T04:33:41;32.10;46.20
62575;DHT22;70119;45.638;11.714;2023-07-31T04:36:07;32.10;46.20
62575;DHT22;70119;45.638;11.714;2023-07-31T04:38:33;32.10;46.20
62575;DHT22;70119;45.638;11.714;2023-07-31T04:40:58;32.10;46.20
62575;DHT22;70119;45.638;11.714;2023-07-31T04:43:24;32.10;46.20
62575;DHT22;70119;45.638;11.714;2023-07-31T04:45:50;32.10;46.20
62575;DHT22;70119;45.638;11.714;2023-07-31T04:48:16;32.10;46.20
62575;DHT22;70119;45.638;11.714;2023-07-31T04:50:43;32.10;46.10
62575;DHT22;70119;45.638;11.714;2023-07-31T04:53:09;32.10;46.10
62575;DHT22;70119;45.638;11.714;2023-07-31T04:55:35;32.10;46.10
62575;DHT22;70119;45.638;11.714;2023-07-31T04:58:01;32.20;46.00
62575;DHT22;70119;45.638;11.714;2023-07-31T05:00:28;32.20;46.00
62575;DHT22;70119;45.638;11.714;2023-07-31T05:02:56;32.10;46.00
62575;DHT22;70119;45.638;11.714;2023-07-31T05:05:30;32.20;45.90
62575;DHT22;70119;45.638;11.714;2023-07-31T05:07:56;32.20;45.80
62575;DHT22;70119;45.638;11.714;2023-07-31T05:10:24;32.30;45.70
62575;DHT22;70119;45.638;11.714;2023-07-31T05:12:50;32.30;45.60
62575;DHT22;70119;45.638;11.714;2023-07-31T05:15:16;32.20;45.70
62575;DHT22;70119;45.638;11.714;2023-07-31T05:17:42;32.20;45.70
62575;DHT22;70119;45.638;11.714;2023-07-31T05:20:08;32.20;45.90
62575;DHT22;70119;45.638;11.714;2023-07-31T05:22:38;32.10;45.90
62575;DHT22;70119;45.638;11.714;2023-07-31T05:25:11;32.00;46.10
62575;DHT22;70119;45.638;11.714;2023-07-31T05:27:37;31.80;46.50
62575;DHT22;70119;45.638;11.714;2023-07-31T05:30:03;31.80;46.60
62575;DHT22;70119;45.638;11.714;2023-07-31T05:32:29;31.80;46.70
62575;DHT22;70119;45.638;11.714;2023-07-31T05:34:55;31.80;46.70
62575;DHT22;70119;45.638;11.714;2023-07-31T05:37:22;31.80;46.70
62575;DHT22;70119;45.638;11.714;2023-07-31T05:39:48;31.90;46.60
62575;DHT22;70119;45.638;11.714;2023-07-31T05:42:16;32.00;46.40
62575;DHT22;70119;45.638;11.714;2023-07-31T05:44:45;32.00;46.70
62575;DHT22;70119;45.638;11.714;2023-07-31T05:47:13;32.00;46.80
62575;DHT22;70119;45.638;11.714;2023-07-31T05:49:40;32.00;47.00
62575;DHT22;70119;45.638;11.714;2023-07-31T05:52:10;32.00;47.00
62575;DHT22;70119;45.638;11.714;2023-07-31T05:54:44;32.00;47.00
62575;DHT22;70119;45.638;11.714;2023-07-31T05:57:19;32.10;47.00
62575;DHT22;70119;45.638;11.714;2023-07-31T05:59:54;32.10;47.00
62575;DHT22;70119;45.638;11.714;2023-07-31T06:02:28;32.10;47.00
62575;DHT22;70119;45.638;11.714;2023-07-31T06:05:09;32.10;46.80
62575;DHT22;70119;45.638;11.714;2023-07-31T06:07:43;32.10;46.80
62575;DHT22;70119;45.638;11.714;2023-07-31T06:10:12;32.10;46.60
62575;DHT22;70119;45.638;11.714;2023-07-31T06:12:43;32.10;46.80
62575;DHT22;70119;45.638;11.714;2023-07-31T06:15:14;32.10;46.90
62575;DHT22;70119;45.638;11.714;2023-07-31T06:17:50;32.10;47.00
62575;DHT22;70119;45.638;11.714;2023-07-31T06:20:18;32.10;47.00
62575;DHT22;70119;45.638;11.714;2023-07-31T06:22:49;32.10;46.90
62575;DHT22;70119;45.638;11.714;2023-07-31T06:25:28;32.10;46.90
62575;DHT22;70119;45.638;11.714;2023-07-31T06:28:01;32.10;46.80
62575;DHT22;70119;45.638;11.714;2023-07-31T06:30:37;32.20;46.80
62575;DHT22;70119;45.638;11.714;2023-07-31T06:33:13;32.20;46.60
62575;DHT22;70119;45.638;11.714;2023-07-31T06:35:52;32.20;46.60
62575;DHT22;70119;45.638;11.714;2023-07-31T06:38:26;32.30;46.70
62575;DHT22;70119;45.638;11.714;2023-07-31T06:40:55;32.20;46.70
62575;DHT22;70119;45.638;11.714;2023-07-31T06:43:27;32.20;46.70
62575;DHT22;70119;45.638;11.714;2023-07-31T06:46:12;32.20;46.60
62575;DHT22;70119;45.638;11.714;2023-07-31T06:48:54;32.30;46.70
62575;DHT22;70119;45.638;11.714;2023-07-31T06:51:38;32.20;46.70
62575;DHT22;70119;45.638;11.714;2023-07-31T06:54:05;32.30;46.60
62575;DHT22;70119;45.638;11.714;2023-07-31T06:56:32;32.30;46.60
62575;DHT22;70119;45.638;11.714;2023-07-31T06:58:58;32.30;46.40
62575;DHT22;70119;45.638;11.714;2023-07-31T07:01:28;32.30;46.30
62575;DHT22;70119;45.638;11.714;2023-07-31T07:04:05;32.30;46.30
62575;DHT22;70119;45.638;11.714;2023-07-31T07:06:32;32.40;46.40
62575;DHT22;70119;45.638;11.714;2023-07-31T07:09:02;32.40;46.40
62575;DHT22;70119;45.638;11.714;2023-07-31T07:11:32;32.40;46.30
62575;DHT22;70119;45.638;11.714;2023-07-31T07:14:05;32.40;46.20
62575;DHT22;70119;45.638;11.714;2023-07-31T07:16:33;32.40;46.20
62575;DHT22;70119;45.638;11.714;2023-07-31T07:19:03;32.40;46.20
62575;DHT22;70119;45.638;11.714;2023-07-31T07:21:35;32.40;46.10
62575;DHT22;70119;45.638;11.714;2023-07-31T07:24:04;32.40;46.10
62575;DHT22;70119;45.638;11.714;2023-07-31T07:26:31;32.40;46.10
62575;DHT22;70119;45.638;11.714;2023-07-31T07:28:59;32.50;46.00
62575;DHT22;70119;45.638;11.714;2023-07-31T07:31:28;32.50;46.00
62575;DHT22;70119;45.638;11.714;2023-07-31T07:33:55;32.50;45.90
62575;DHT22;70119;45.638;11.714;2023-07-31T07:36:22;32.50;45.80
62575;DHT22;70119;45.638;11.714;2023-07-31T07:38:48;32.50;45.80
62575;DHT22;70119;45.638;11.714;2023-07-31T07:41:15;32.50;45.80
62575;DHT22;70119;45.638;11.714;2023-07-31T07:43:41;32.50;45.80
62575;DHT22;70119;45.638;11.714;2023-07-31T07:46:07;32.60;45.80
62575;DHT22;70119;45.638;11.714;2023-07-31T07:48:33;32.60;45.70
62575;DHT22;70119;45.638;11.714;2023-07-31T07:51:00;32.50;45.70
62575;DHT22;70119;45.638;11.714;2023-07-31T07:53:26;32.50;45.70
62575;DHT22;70119;45.638;11.714;2023-07-31T07:55:53;32.60;45.60
62575;DHT22;70119;45.638;11.714;2023-07-31T07:58:19;32.60;45.70
62575;DHT22;70119;45.638;11.714;2023-07-31T08:00:51;32.60;45.60
62575;DHT22;70119;45.638;11.714;2023-07-31T08:03:19;32.60;45.60
62575;DHT22;70119;45.638;11.714;2023-07-31T08:05:45;32.60;45.50
62575;DHT22;70119;45.638;11.714;2023-07-31T08:08:18;32.60;45.60
62575;DHT22;70119;45.638;11.714;2023-07-31T08:10:45;32.60;45.50
62575;DHT22;70119;45.638;11.714;2023-07-31T08:13:12;32.50;45.50
62575;DHT22;70119;45.638;11.714;2023-07-31T08:15:38;32.60;45.40
62575;DHT22;70119;45.638;11.714;2023-07-31T08:18:09;32.60;45.50
62575;DHT22;70119;45.638;11.714;2023-07-31T08:20:47;32.60;45.40
62575;DHT22;70119;45.638;11.714;2023-07-31T08:23:13;32.60;45.40
62575;DHT22;70119;45.638;11.714;2023-07-31T08:25:39;32.60;45.40
62575;DHT22;70119;45.638;11.714;2023-07-31T08:28:09;32.60;45.40
62575;DHT22;70119;45.638;11.714;2023-07-31T08:30:35;32.60;45.40
62575;DHT22;70119;45.638;11.714;2023-07-31T08:33:01;32.60;45.40
62575;DHT22;70119;45.638;11.714;2023-07-31T08:35:27;32.60;45.40
62575;DHT22;70119;45.638;11.714;2023-07-31T08:37:55;32.60;45.40
62575;DHT22;70119;45.638;11.714;2023-07-31T08:40:21;32.60;45.40
62575;DHT22;70119;45.638;11.714;2023-07-31T08:42:52;32.60;45.40
62575;DHT22;70119;45.638;11.714;2023-07-31T08:45:19;32.60;45.30
62575;DHT22;70119;45.638;11.714;2023-07-31T08:47:48;32.60;45.00
62575;DHT22;70119;45.638;11.714;2023-07-31T08:50:15;32.50;44.70
62575;DHT22;70119;45.638;11.714;2023-07-31T08:52:41;32.50;44.60
62575;DHT22;70119;45.638;11.714;2023-07-31T08:55:07;32.40;44.50
62575;DHT22;70119;45.638;11.714;2023-07-31T08:57:38;32.40;44.40
62575;DHT22;70119;45.638;11.714;2023-07-31T09:00:08;32.30;44.30
62575;DHT22;70119;45.638;11.714;2023-07-31T09:02:38;32.30;44.30
62575;DHT22;70119;45.638;11.714;2023-07-31T09:05:07;32.30;44.30
62575;DHT22;70119;45.638;11.714;2023-07-31T09:07:35;32.30;44.30
62575;DHT22;70119;45.638;11.714;2023-07-31T09:10:02;32.20;44.20
62575;DHT22;70119;45.638;11.714;2023-07-31T09:12:28;32.20;44.20
62575;DHT22;70119;45.638;11.714;2023-07-31T09:14:54;32.20;44.20
62575;DHT22;70119;45.638;11.714;2023-07-31T09:17:30;32.20;44.20
62575;DHT22;70119;45.638;11.714;2023-07-31T09:19:57;32.10;44.20
62575;DHT22;70119;45.638;11.714;2023-07-31T09:22:33;32.20;44.00
62575;DHT22;70119;45.638;11.714;2023-07-31T09:25:14;32.10;44.00
62575;DHT22;70119;45.638;11.714;2023-07-31T09:27:57;32.10;44.00
62575;DHT22;70119;45.638;11.714;2023-07-31T09:30:23;32.10;43.90
62575;DHT22;70119;45.638;11.714;2023-07-31T09:32:50;32.10;43.90
62575;DHT22;70119;45.638;11.714;2023-07-31T09:35:27;32.10;43.90
62575;DHT22;70119;45.638;11.714;2023-07-31T09:37:57;32.10;43.90
62575;DHT22;70119;45.638;11.714;2023-07-31T09:40:31;32.00;43.90
62575;DHT22;70119;45.638;11.714;2023-07-31T09:42:58;32.00;43.90
62575;DHT22;70119;45.638;11.714;2023-07-31T09:45:25;32.00;43.90
62575;DHT22;70119;45.638;11.714;2023-07-31T09:47:51;32.00;43.80
62575;DHT22;70119;45.638;11.714;2023-07-31T09:50:19;32.00;43.90
62575;DHT22;70119;45.638;11.714;2023-07-31T09:52:45;32.00;43.90
62575;DHT22;70119;45.638;11.714;2023-07-31T09:55:11;32.00;44.00
62575;DHT22;70119;45.638;11.714;2023-07-31T09:57:41;32.00;43.90
62575;DHT22;70119;45.638;11.714;2023-07-31T10:00:09;32.00;44.00
62575;DHT22;70119;45.638;11.714;2023-07-31T10:02:37;32.00;44.00
62575;DHT22;70119;45.638;11.714;2023-07-31T10:05:05;32.00;43.90
62575;DHT22;70119;45.638;11.714;2023-07-31T10:07:33;32.00;44.00
62575;DHT22;70119;45.638;11.714;2023-07-31T10:10:02;32.00;44.00
62575;DHT22;70119;45.638;11.714;2023-07-31T10:12:29;32.00;44.00
62575;DHT22;70119;45.638;11.714;2023-07-31T10:15:00;31.90;43.90
62575;DHT22;70119;45.638;11.714;2023-07-31T10:17:26;32.00;43.90
62575;DHT22;70119;45.638;11.714;2023-07-31T10:19:59;32.00;44.00
62575;DHT22;70119;45.638;11.714;2023-07-31T10:22:27;32.00;43.90
62575;DHT22;70119;45.638;11.714;2023-07-31T10:24:55;31.90;43.90
62575;DHT22;70119;45.638;11.714;2023-07-31T10:27:23;32.00;43.90
62575;DHT22;70119;45.638;11.714;2023-07-31T10:29:49;31.90;43.90
62575;DHT22;70119;45.638;11.714;2023-07-31T10:32:17;31.90;43.80
62575;DHT22;70119;45.638;11.714;2023-07-31T10:34:43;31.90;43.80
62575;DHT22;70119;45.638;11.714;2023-07-31T10:37:29;31.90;43.90
62575;DHT22;70119;45.638;11.714;2023-07-31T10:42:35;32.00;43.90
62575;DHT22;70119;45.638;11.714;2023-07-31T10:45:04;32.00;43.80
62575;DHT22;70119;45.638;11.714;2023-07-31T10:47:30;32.00;43.70
62575;DHT22;70119;45.638;11.714;2023-07-31T10:50:32;32.00;43.70
62575;DHT22;70119;45.638;11.714;2023-07-31T10:52:59;32.00;43.60
62575;DHT22;70119;45.638;11.714;2023-07-31T10:55:38;32.00;43.80
62575;DHT22;70119;45.638;11.714;2023-07-31T10:58:12;32.00;43.80
62575;DHT22;70119;45.638;11.714;2023-07-31T11:00:42;32.00;43.80
62575;DHT22;70119;45.638;11.714;2023-07-31T11:03:12;32.00;44.00
62575;DHT22;70119;45.638;11.714;2023-07-31T11:05:48;32.00;44.20
62575;DHT22;70119;45.638;11.714;2023-07-31T11:08:17;32.00;44.30
62575;DHT22;70119;45.638;11.714;2023-07-31T11:10:44;32.00;44.40
62575;DHT22;70119;45.638;11.714;2023-07-31T11:13:10;32.00;44.60
62575;DHT22;70119;45.638;11.714;2023-07-31T11:15:36;32.00;44.80
62575;DHT22;70119;45.638;11.714;2023-07-31T11:18:02;32.00;44.90
62575;DHT22;70119;45.638;11.714;2023-07-31T11:20:32;32.00;45.00
62575;DHT22;70119;45.638;11.714;2023-07-31T11:23:03;32.00;45.20
62575;DHT22;70119;45.638;11.714;2023-07-31T11:25:30;32.00;45.20
62575;DHT22;70119;45.638;11.714;2023-07-31T11:28:01;32.00;45.20
62575;DHT22;70119;45.638;11.714;2023-07-31T11:30:28;32.00;45.30
62575;DHT22;70119;45.638;11.714;2023-07-31T11:32:55;32.00;45.30
62575;DHT22;70119;45.638;11.714;2023-07-31T11:35:21;31.90;45.40
62575;DHT22;70119;45.638;11.714;2023-07-31T11:37:48;32.00;45.40
62575;DHT22;70119;45.638;11.714;2023-07-31T11:40:14;32.00;45.40
62575;DHT22;70119;45.638;11.714;2023-07-31T11:42:40;32.00;45.40
62575;DHT22;70119;45.638;11.714;2023-07-31T11:45:08;31.90;45.30
62575;DHT22;70119;45.638;11.714;2023-07-31T11:47:35;32.00;45.30
62575;DHT22;70119;45.638;11.714;2023-07-31T11:50:04;31.90;45.30
62575;DHT22;70119;45.638;11.714;2023-07-31T11:52:34;32.00;45.20
62575;DHT22;70119;45.638;11.714;2023-07-31T11:55:01;31.90;45.20
62575;DHT22;70119;45.638;11.714;2023-07-31T11:57:28;31.90;45.10
62575;DHT22;70119;45.638;11.714;2023-07-31T11:59:55;31.90;45.00
62575;DHT22;70119;45.638;11.714;2023-07-31T12:02:21;31.90;44.90
62575;DHT22;70119;45.638;11.714;2023-07-31T12:05:02;31.90;44.90
62575;DHT22;70119;45.638;11.714;2023-07-31T12:07:55;31.90;44.80
62575;DHT22;70119;45.638;11.714;2023-07-31T12:10:31;31.90;44.70
62575;DHT22;70119;45.638;11.714;2023-07-31T12:13:09;31.90;44.70
62575;DHT22;70119;45.638;11.714;2023-07-31T12:15:38;31.90;44.60
62575;DHT22;70119;45.638;11.714;2023-07-31T12:18:19;31.90;44.60
62575;DHT22;70119;45.638;11.714;2023-07-31T12:20:56;31.80;44.50
62575;DHT22;70119;45.638;11.714;2023-07-31T12:23:30;31.80;44.50
62575;DHT22;70119;45.638;11.714;2023-07-31T12:26:14;31.80;44.50
62575;DHT22;70119;45.638;11.714;2023-07-31T12:28:46;31.80;44.50
62575;DHT22;70119;45.638;11.714;2023-07-31T12:31:20;31.80;44.40
62575;DHT22;70119;45.638;11.714;2023-07-31T12:33:48;31.80;44.40
62575;DHT22;70119;45.638;11.714;2023-07-31T12:36:22;31.80;44.30
62575;DHT22;70119;45.638;11.714;2023-07-31T12:38:50;31.80;44.30
62575;DHT22;70119;45.638;11.714;2023-07-31T12:41:16;31.80;44.30
62575;DHT22;70119;45.638;11.714;2023-07-31T12:43:43;31.80;44.20
62575;DHT22;70119;45.638;11.714;2023-07-31T12:46:09;31.80;44.20
62575;DHT22;70119;45.638;11.714;2023-07-31T12:48:39;31.80;44.20
62575;DHT22;70119;45.638;11.714;2023-07-31T12:51:06;31.80;44.00
62575;DHT22;70119;45.638;11.714;2023-07-31T12:53:36;31.80;44.10
62575;DHT22;70119;45.638;11.714;2023-07-31T12:56:04;31.80;44.10
62575;DHT22;70119;45.638;11.714;2023-07-31T12:58:30;31.80;44.00
62575;DHT22;70119;45.638;11.714;2023-07-31T13:00:58;31.70;44.00
62575;DHT22;70119;45.638;11.714;2023-07-31T13:03:27;31.80;44.00
62575;DHT22;70119;45.638;11.714;2023-07-31T13:05:54;31.80;43.90
62575;DHT22;70119;45.638;11.714;2023-07-31T13:08:21;31.80;43.90
62575;DHT22;70119;45.638;11.714;2023-07-31T13:10:47;31.80;43.80
62575;DHT22;70119;45.638;11.714;2023-07-31T13:13:14;31.80;43.80
62575;DHT22;70119;45.638;11.714;2023-07-31T13:15:40;31.80;43.80
62575;DHT22;70119;45.638;11.714;2023-07-31T13:18:06;31.80;43.80
62575;DHT22;70119;45.638;11.714;2023-07-31T13:20:31;31.70;43.70
62575;DHT22;70119;45.638;11.714;2023-07-31T13:22:57;31.70;43.70
62575;DHT22;70119;45.638;11.714;2023-07-31T13:25:23;31.80;43.60
62575;DHT22;70119;45.638;11.714;2023-07-31T13:27:49;31.80;43.60
62575;DHT22;70119;45.638;11.714;2023-07-31T13:30:15;31.80;43.60
62575;DHT22;70119;45.638;11.714;2023-07-31T13:32:41;31.80;43.60
62575;DHT22;70119;45.638;11.714;2023-07-31T13:35:08;31.80;43.60
62575;DHT22;70119;45.638;11.714;2023-07-31T13:37:35;31.80;43.60
62575;DHT22;70119;45.638;11.714;2023-07-31T13:40:01;31.80;43.50
62575;DHT22;70119;45.638;11.714;2023-07-31T13:42:27;31.70;43.50
62575;DHT22;70119;45.638;11.714;2023-07-31T13:44:54;31.70;43.50
62575;DHT22;70119;45.638;11.714;2023-07-31T13:47:21;31.80;43.40
62575;DHT22;70119;45.638;11.714;2023-07-31T13:49:47;31.80;43.40
62575;DHT22;70119;45.638;11.714;2023-07-31T13:52:13;31.70;43.40
62575;DHT22;70119;45.638;11.714;2023-07-31T13:54:39;31.70;43.40
62575;DHT22;70119;45.638;11.714;2023-07-31T13:57:05;31.70;43.40
62575;DHT22;70119;45.638;11.714;2023-07-31T13:59:31;31.80;43.40
62575;DHT22;70119;45.638;11.714;2023-07-31T14:01:58;31.70;43.40
62575;DHT22;70119;45.638;11.714;2023-07-31T14:04:24;31.80;43.40
62575;DHT22;70119;45.638;11.714;2023-07-31T14:06:51;31.70;43.40
62575;DHT22;70119;45.638;11.714;2023-07-31T14:09:18;31.80;43.40
62575;DHT22;70119;45.638;11.714;2023-07-31T14:11:45;31.70;43.30
62575;DHT22;70119;45.638;11.714;2023-07-31T14:14:12;31.70;43.30
62575;DHT22;70119;45.638;11.714;2023-07-31T14:16:39;31.70;43.30
62575;DHT22;70119;45.638;11.714;2023-07-31T14:19:05;31.70;43.30
62575;DHT22;70119;45.638;11.714;2023-07-31T14:21:34;31.70;43.30
62575;DHT22;70119;45.638;11.714;2023-07-31T14:24:00;31.70;43.30
62575;DHT22;70119;45.638;11.714;2023-07-31T14:26:27;31.70;43.40
62575;DHT22;70119;45.638;11.714;2023-07-31T14:28:53;31.70;43.30
62575;DHT22;70119;45.638;11.714;2023-07-31T14:31:20;31.70;43.40
62575;DHT22;70119;45.638;11.714;2023-07-31T14:33:47;31.70;43.30
62575;DHT22;70119;45.638;11.714;2023-07-31T14:36:14;31.70;43.40
62575;DHT22;70119;45.638;11.714;2023-07-31T14:38:39;31.70;43.40
62575;DHT22;70119;45.638;11.714;2023-07-31T14:41:07;31.70;43.30
62575;DHT22;70119;45.638;11.714;2023-07-31T14:43:34;31.70;43.30
62575;DHT22;70119;45.638;11.714;2023-07-31T14:46:00;31.70;43.30
62575;DHT22;70119;45.638;11.714;2023-07-31T14:48:26;31.70;43.20
62575;DHT22;70119;45.638;11.714;2023-07-31T14:50:54;31.70;43.20
62575;DHT22;70119;45.638;11.714;2023-07-31T14:53:21;31.70;43.20
62575;DHT22;70119;45.638;11.714;2023-07-31T14:55:47;31.70;43.20
62575;DHT22;70119;45.638;11.714;2023-07-31T14:58:13;31.60;43.20
62575;DHT22;70119;45.638;11.714;2023-07-31T15:00:40;31.70;43.20
62575;DHT22;70119;45.638;11.714;2023-07-31T15:03:06;31.70;43.20
62575;DHT22;70119;45.638;11.714;2023-07-31T15:05:31;31.60;43.20
62575;DHT22;70119;45.638;11.714;2023-07-31T15:07:57;31.60;43.20
62575;DHT22;70119;45.638;11.714;2023-07-31T15:10:23;31.60;43.10
62575;DHT22;70119;45.638;11.714;2023-07-31T15:12:49;31.60;43.10
62575;DHT22;70119;45.638;11.714;2023-07-31T15:15:15;31.60;43.10
62575;DHT22;70119;45.638;11.714;2023-07-31T15:17:42;31.60;43.10
62575;DHT22;70119;45.638;11.714;2023-07-31T15:20:09;31.60;43.10
62575;DHT22;70119;45.638;11.714;2023-07-31T15:22:35;31.60;43.10
62575;DHT22;70119;45.638;11.714;2023-07-31T15:25:02;31.60;43.10
62575;DHT22;70119;45.638;11.714;2023-07-31T15:27:28;31.60;43.10
62575;DHT22;70119;45.638;11.714;2023-07-31T15:29:54;31.60;43.10